Time,TemperatureF,DewpointF,PressureIn,WindDirection,WindDirectionDegrees,WindSpeedMPH,WindSpeedGustMPH,Humidity,HourlyPrecipIn,Conditions,Clouds,dailyrainin,SoftwareType,DateUTC
2013-04-07 00:14:00,50.4,36.2,30.06,SE,135,0.0,-999.0,58,-99.99,,,0.00,Acu-Link.com,2013-04-07 04:14:00,
2013-04-07 00:30:00,50.0,35.4,30.07,SSW,202,0.0,-999.0,57,-99.99,,,0.00,Acu-Link.com,2013-04-07 04:30:00,
2013-04-07 00:45:00,50.0,35.4,30.06,SSE,157,1.7,-999.0,57,-99.99,,,0.00,Acu-Link.com,2013-04-07 04:45:00,
2013-04-07 01:00:00,50.0,34.5,30.06,WSW,247,0.0,-999.0,55,-99.99,,,0.00,Acu-Link.com,2013-04-07 05:00:00,
2013-04-07 01:15:00,50.2,35.1,30.06,South,180,0.0,-999.0,56,-99.99,,,0.00,Acu-Link.com,2013-04-07 05:15:00,
2013-04-07 01:31:00,49.3,36.0,30.06,West,270,0.0,-999.0,60,-99.99,,,0.00,Acu-Link.com,2013-04-07 05:31:00,
2013-04-07 01:46:00,48.0,36.4,30.06,NNE,22,0.0,-999.0,64,-99.99,,,0.00,Acu-Link.com,2013-04-07 05:46:00,
2013-04-07 02:01:00,47.7,35.3,30.06,WSW,247,0.0,-999.0,62,-99.99,,,0.00,Acu-Link.com,2013-04-07 06:01:00,
2013-04-07 02:17:00,46.8,36.4,30.06,SW,225,0.0,-999.0,67,-99.99,,,0.00,Acu-Link.com,2013-04-07 06:17:00,
2013-04-07 02:32:00,46.0,35.7,30.06,West,270,0.0,-999.0,67,-99.99,,,0.00,Acu-Link.com,2013-04-07 06:32:00,
2013-04-07 02:47:00,45.5,35.6,30.06,SSE,157,0.0,-999.0,68,-99.99,,,0.00,Acu-Link.com,2013-04-07 06:47:00,
2013-04-07 03:02:00,45.0,35.5,30.05,WNW,292,0.0,-999.0,69,-99.99,,,0.00,Acu-Link.com,2013-04-07 07:02:00,
2013-04-07 03:18:00,45.1,34.8,30.06,WSW,247,0.0,-999.0,67,-99.99,,,0.00,Acu-Link.com,2013-04-07 07:18:00,
2013-04-07 03:33:00,45.5,34.4,30.05,SW,225,0.0,-999.0,65,-99.99,,,0.00,Acu-Link.com,2013-04-07 07:33:00,
2013-04-07 04:19:00,45.1,35.9,30.06,WSW,247,0.0,-999.0,70,-99.99,,,0.00,Acu-Link.com,2013-04-07 08:19:00,
2013-04-07 04:34:00,44.6,35.4,30.06,West,270,0.0,-999.0,70,-99.99,,,0.00,Acu-Link.com,2013-04-07 08:34:00,
2013-04-07 05:05:00,44.6,35.8,30.06,East,90,0.0,-999.0,71,-99.99,,,0.00,Acu-Link.com,2013-04-07 09:05:00,
2013-04-07 05:20:00,44.4,34.5,30.06,SSE,157,0.0,-999.0,68,-99.99,,,0.00,Acu-Link.com,2013-04-07 09:20:00,
2013-04-07 05:35:00,46.0,33.7,30.06,SSE,157,0.0,-999.0,62,-99.99,,,0.00,Acu-Link.com,2013-04-07 09:35:00,
2013-04-07 05:50:00,46.6,33.5,30.06,South,180,0.0,-999.0,60,-99.99,,,0.00,Acu-Link.com,2013-04-07 09:50:00,
2013-04-07 06:05:00,46.8,32.4,30.07,SSE,157,0.0,-999.0,57,-99.99,,,0.00,Acu-Link.com,2013-04-07 10:05:00,
2013-04-07 06:20:00,46.6,32.6,30.07,SE,135,0.0,-999.0,58,-99.99,,,0.00,Acu-Link.com,2013-04-07 10:20:00,
2013-04-07 06:35:00,46.4,32.4,30.07,ESE,112,0.0,-999.0,58,-99.99,,,0.00,Acu-Link.com,2013-04-07 10:35:00,
2013-04-07 07:21:00,45.7,33.8,30.08,West,270,0.0,-999.0,63,-99.99,,,0.00,Acu-Link.com,2013-04-07 11:21:00,
2013-04-07 07:36:00,44.8,34.9,30.08,NNE,22,0.0,-999.0,68,-99.99,,,0.00,Acu-Link.com,2013-04-07 11:36:00,
2013-04-07 07:52:00,44.6,34.7,30.09,SW,225,0.0,-999.0,68,-99.99,,,0.00,Acu-Link.com,2013-04-07 11:52:00,
2013-04-07 08:07:00,45.3,35.0,30.09,SE,135,0.0,-999.0,67,-99.99,,,0.00,Acu-Link.com,2013-04-07 12:07:00,
2013-04-07 08:22:00,46.9,36.1,30.10,ENE,67,0.0,-999.0,66,-99.99,,,0.00,Acu-Link.com,2013-04-07 12:22:00,
2013-04-07 08:38:00,48.9,37.7,30.11,SSW,202,1.1,-999.0,65,-99.99,,,0.00,Acu-Link.com,2013-04-07 12:38:00,
2013-04-07 08:53:00,52.7,37.4,30.11,NNW,337,1.7,-999.0,56,-99.99,,,0.00,Acu-Link.com,2013-04-07 12:53:00,
2013-04-07 09:08:00,54.9,38.1,30.11,WSW,247,2.7,-999.0,53,-99.99,,,0.00,Acu-Link.com,2013-04-07 13:08:00,
2013-04-07 09:23:00,55.6,37.8,30.11,NE,45,2.7,-999.0,51,-99.99,,,0.00,Acu-Link.com,2013-04-07 13:23:00,
2013-04-07 09:38:00,57.4,38.4,30.11,SE,135,4.2,-999.0,49,-99.99,,,0.00,Acu-Link.com,2013-04-07 13:38:00,
2013-04-07 09:54:00,57.0,39.1,30.11,WNW,292,2.7,-999.0,51,-99.99,,,0.00,Acu-Link.com,2013-04-07 13:54:00,
2013-04-07 10:39:00,61.7,42.3,30.11,WSW,247,1.7,-999.0,49,-99.99,,,0.00,Acu-Link.com,2013-04-07 14:39:00,
2013-04-07 10:55:00,63.9,43.8,30.11,South,180,1.7,-999.0,48,-99.99,,,0.00,Acu-Link.com,2013-04-07 14:55:00,
2013-04-07 11:10:00,64.4,43.7,30.11,SSE,157,2.7,-999.0,47,-99.99,,,0.00,Acu-Link.com,2013-04-07 15:10:00,
2013-04-07 11:40:00,63.1,44.2,30.11,SSW,202,2.7,-999.0,50,-99.99,,,0.00,Acu-Link.com,2013-04-07 15:40:00,
2013-04-07 11:55:00,64.9,44.7,30.11,SW,225,2.2,-999.0,48,-99.99,,,0.00,Acu-Link.com,2013-04-07 15:55:00,
2013-04-07 12:41:00,68.0,45.3,30.10,SSW,202,3.2,-999.0,44,-99.99,,,0.00,Acu-Link.com,2013-04-07 16:41:00,
2013-04-07 12:57:00,67.6,45.5,30.09,SE,135,4.2,-999.0,45,-99.99,,,0.00,Acu-Link.com,2013-04-07 16:57:00,
2013-04-07 13:12:00,68.0,45.3,30.08,SSE,157,1.7,-999.0,44,-99.99,,,0.00,Acu-Link.com,2013-04-07 17:12:00,
2013-04-07 13:27:00,70.2,46.0,30.07,South,180,2.2,-999.0,42,-99.99,,,0.00,Acu-Link.com,2013-04-07 17:27:00,
2013-04-07 13:43:00,67.5,45.4,30.06,South,180,2.7,-999.0,45,-99.99,,,0.00,Acu-Link.com,2013-04-07 17:43:00,
2013-04-07 13:58:00,68.0,45.3,30.05,SSE,157,2.7,-999.0,44,-99.99,,,0.00,Acu-Link.com,2013-04-07 17:58:00,
2013-04-07 14:13:00,68.5,45.1,30.04,South,180,3.2,-999.0,43,-99.99,,,0.00,Acu-Link.com,2013-04-07 18:13:00,
2013-04-07 14:44:00,67.6,42.4,30.03,East,90,2.7,-999.0,40,-99.99,,,0.00,Acu-Link.com,2013-04-07 18:44:00,
2013-04-07 14:59:00,70.9,43.3,30.03,SSW,202,2.7,-999.0,37,-99.99,,,0.00,Acu-Link.com,2013-04-07 18:59:00,
2013-04-07 15:14:00,71.2,44.3,30.02,South,180,2.2,-999.0,38,-99.99,,,0.00,Acu-Link.com,2013-04-07 19:14:00,
2013-04-07 15:30:00,70.9,44.0,30.02,SSW,202,3.2,-999.0,38,-99.99,,,0.00,Acu-Link.com,2013-04-07 19:30:00,
2013-04-07 15:45:00,69.4,42.7,30.01,SSW,202,2.2,-999.0,38,-99.99,,,0.00,Acu-Link.com,2013-04-07 19:45:00,
2013-04-07 16:00:00,70.2,43.4,30.01,SE,135,1.7,-999.0,38,-99.99,,,0.00,Acu-Link.com,2013-04-07 20:00:00,
2013-04-07 17:02:00,69.4,43.4,30.01,SSW,202,2.2,-999.0,39,-99.99,,,0.00,Acu-Link.com,2013-04-07 21:02:00,
2013-04-07 17:17:00,69.3,43.3,30.01,SW,225,1.7,-999.0,39,-99.99,,,0.00,Acu-Link.com,2013-04-07 21:17:00,
2013-04-07 17:32:00,69.8,44.4,30.01,SW,225,0.0,-999.0,40,-99.99,,,0.00,Acu-Link.com,2013-04-07 21:32:00,
2013-04-07 17:48:00,68.4,43.8,30.01,SSW,202,1.1,-999.0,41,-99.99,,,0.00,Acu-Link.com,2013-04-07 21:48:00,
2013-04-07 18:03:00,68.2,43.6,30.01,SSE,157,0.0,-999.0,41,-99.99,,,0.00,Acu-Link.com,2013-04-07 22:03:00,
2013-04-07 18:18:00,67.5,44.2,30.01,ESE,112,2.2,-999.0,43,-99.99,,,0.00,Acu-Link.com,2013-04-07 22:18:00,
2013-04-07 18:49:00,67.1,44.5,30.00,West,270,2.2,-999.0,44,-99.99,,,0.00,Acu-Link.com,2013-04-07 22:49:00,
2013-04-07 19:19:00,65.5,43.6,30.01,South,180,1.1,-999.0,45,-99.99,,,0.00,Acu-Link.com,2013-04-07 23:19:00,
2013-04-07 19:34:00,64.8,46.2,30.02,SSW,202,0.0,-999.0,51,-99.99,,,0.00,Acu-Link.com,2013-04-07 23:34:00,
2013-04-07 20:05:00,62.1,44.3,30.02,ENE,67,0.0,-999.0,52,-99.99,,,0.00,Acu-Link.com,2013-04-08 00:05:00,
2013-04-07 20:20:00,61.2,43.4,30.02,West,270,0.0,-999.0,52,-99.99,,,0.00,Acu-Link.com,2013-04-08 00:20:00,
2013-04-07 20:36:00,59.7,43.5,30.02,WNW,292,0.0,-999.0,55,-99.99,,,0.00,Acu-Link.com,2013-04-08 00:36:00,
2013-04-07 21:21:00,58.6,43.9,30.02,SW,225,0.0,-999.0,58,-99.99,,,0.00,Acu-Link.com,2013-04-08 01:21:00,
2013-04-07 21:36:00,58.1,43.8,30.02,WSW,247,1.1,-999.0,59,-99.99,,,0.00,Acu-Link.com,2013-04-08 01:36:00,
2013-04-07 21:52:00,57.7,43.9,30.03,SW,225,0.0,-999.0,60,-99.99,,,0.00,Acu-Link.com,2013-04-08 01:52:00,
2013-04-07 22:07:00,57.0,44.1,30.03,SSE,157,0.0,-999.0,62,-99.99,,,0.00,Acu-Link.com,2013-04-08 02:07:00,
2013-04-07 22:22:00,56.5,44.1,30.03,WSW,247,0.0,-999.0,63,-99.99,,,0.00,Acu-Link.com,2013-04-08 02:22:00,
2013-04-07 22:37:00,55.8,43.8,30.03,SSW,202,0.0,-999.0,64,-99.99,,,0.00,Acu-Link.com,2013-04-08 02:37:00,
2013-04-07 22:53:00,55.4,44.2,30.02,SE,135,0.0,-999.0,66,-99.99,,,0.00,Acu-Link.com,2013-04-08 02:53:00,
2013-04-07 23:08:00,55.2,44.4,30.02,SW,225,1.7,-999.0,67,-99.99,,,0.00,Acu-Link.com,2013-04-08 03:08:00,
2013-04-07 23:23:00,54.9,44.5,30.02,WSW,247,0.0,-999.0,68,-99.99,,,0.00,Acu-Link.com,2013-04-08 03:23:00,
2013-04-07 23:54:00,53.6,44.1,30.02,WSW,247,0.0,-999.0,70,-99.99,,,0.00,Acu-Link.com,2013-04-08 03:54:00,